KMEM/MEM METAR and TAF weather

Enter ICAO airport designator
Station Type Date Time Source
KMEM METAR 2019/05/25 14:54 UTC NOAA

KMEM 251454Z 20012G23KT 180V240 10SM SCT250 28/21 A3013 RMK AO2 SLP198 T02780211 53001


Station Type Date Time Source
KMEM Decoded METAR 2019/05/25 14:54 UTC NOAA

MEMPHIS INTERNATIONAL AIRPORT , TN, United States (KMEM) 35-02N 089-59W 86M
May 25, 2019 - 10:54 AM EDT / 2019.05.25 1454 UTC
Wind: from the SSW (200 degrees) at 14 MPH (12 KT) gusting to 26 MPH (23 KT) (direction variable):0
Visibility: 10 mile(s):0
Sky conditions: partly cloudy
Temperature: 82.0 F (27.8 C)
Dew Point: 70.0 F (21.1 C)
Relative Humidity: 66%
Pressure (altimeter): 30.13 in. Hg (1020 hPa)
Pressure tendency: 0.00 inches (0.1 hPa) higher than three hours ago
ob: KMEM 251454Z 20012G23KT 180V240 10SM SCT250 28/21 A3013 RMK AO2 SLP198 T02780211 53001
cycle: 15

Station Type Date Time Source
KMEM TAF 2019/05/25 15:06 UTC NOAA

TAF
AMD KMEM 251505Z 2515/2618 20012G20KT P6SM SCT250
FM251600 22010G17KT P6SM FEW040
FM260100 18006KT P6SM SKC

Example: see airport list